Time;durP1;ratioP1;P1;durP2;ratioP2;P2;SDS_P1;SDS_P2;PMS_P1;PMS_P2;Temp;Humidity;BMP_temperature;BMP_pressure;BME280_temperature;BME280_humidity;BME280_pressure;Samples;Min_cycle;Max_cycle;Signal;HPM_P1;HPM_P2
2022/09/16 00:01:31;;;;;;;235.97;126.13;;;;;;;;;;5040847;28;20184;-53
2022/09/16 00:03:57;;;;;;;251.33;131.37;;;;;;;;;;5040425;28;20228;-53
2022/09/16 00:06:25;;;;;;;251.23;129.67;;;;;;;;;;5038900;28;20234;-53
2022/09/16 00:08:51;;;;;;;240.03;127.63;;;;;;;;;;5025627;28;20239;-53
2022/09/16 00:11:17;;;;;;;236.83;125.87;;;;;;;;;;5026938;28;20239;-53
2022/09/16 00:13:43;;;;;;;241.33;125.27;;;;;;;;;;5034602;28;20187;-53
2022/09/16 00:16:12;;;;;;;226.17;120.27;;;;;;;;;;5040231;28;20180;-52
2022/09/16 00:18:38;;;;;;;248.63;129.37;;;;;;;;;;5040021;28;20611;-53
2022/09/16 00:21:07;;;;;;;233.53;122.53;;;;;;;;;;5035976;28;20234;-53
2022/09/16 00:23:33;;;;;;;239.13;123.20;;;;;;;;;;5039569;28;20207;-53
2022/09/16 00:25:59;;;;;;;240.33;125.60;;;;;;;;;;5037919;28;20188;-53
2022/09/16 00:28:25;;;;;;;229.70;122.67;;;;;;;;;;5034829;28;20204;-54
2022/09/16 00:30:51;;;;;;;245.23;127.47;;;;;;;;;;5030976;28;20192;-52
2022/09/16 00:33:18;;;;;;;225.90;119.97;;;;;;;;;;5031997;28;20183;-53
2022/09/16 00:35:44;;;;;;;230.23;121.73;;;;;;;;;;5039938;28;20200;-53
2022/09/16 00:38:10;;;;;;;236.17;123.60;;;;;;;;;;5038784;28;20188;-53
2022/09/16 00:40:43;;;;;;;232.10;123.03;;;;;;;;;;5039258;28;20248;-53
2022/09/16 00:43:11;;;;;;;228.87;122.47;;;;;;;;;;5039576;28;20282;-53
2022/09/16 00:45:37;;;;;;;252.23;133.33;;;;;;;;;;5039555;28;20200;-53
2022/09/16 00:48:08;;;;;;;235.73;125.27;;;;;;;;;;5038607;28;20203;-52
2022/09/16 00:50:40;;;;;;;225.47;121.17;;;;;;;;;;5039079;28;20180;-53
2022/09/16 00:53:08;;;;;;;234.10;126.60;;;;;;;;;;5040100;28;20204;-53
2022/09/16 00:55:35;;;;;;;233.13;122.83;;;;;;;;;;5039509;28;20218;-53
2022/09/16 00:58:07;;;;;;;241.37;128.97;;;;;;;;;;5028899;28;20250;-53
2022/09/16 01:00:33;;;;;;;219.80;120.10;;;;;;;;;;5038616;28;20176;-53
2022/09/16 01:02:59;;;;;;;226.50;121.87;;;;;;;;;;5039605;28;20184;-53
2022/09/16 01:05:25;;;;;;;223.97;121.43;;;;;;;;;;5039269;28;20295;-53
2022/09/16 01:07:53;;;;;;;233.03;125.33;;;;;;;;;;5038711;28;20628;-53
2022/09/16 01:10:20;;;;;;;238.97;126.17;;;;;;;;;;5039107;28;20183;-53
2022/09/16 01:12:48;;;;;;;214.60;119.37;;;;;;;;;;5039382;28;20176;-53
2022/09/16 01:15:15;;;;;;;225.53;124.10;;;;;;;;;;5038950;28;20200;-53
2022/09/16 01:17:44;;;;;;;238.97;127.77;;;;;;;;;;5039619;28;20219;-53
2022/09/16 01:20:20;;;;;;;248.77;127.33;;;;;;;;;;5038935;28;20240;-53
2022/09/16 01:23:05;;;;;;;256.27;128.60;;;;;;;;;;5024424;28;20198;-53
2022/09/16 01:25:46;;;;;;;278.57;138.40;;;;;;;;;;5022505;28;20200;-53
2022/09/16 01:28:31;;;;;;;247.43;124.87;;;;;;;;;;5038795;28;20301;-53
2022/09/16 01:31:06;;;;;;;271.63;134.43;;;;;;;;;;5025212;28;20239;-53
2022/09/16 01:33:59;;;;;;;246.77;128.77;;;;;;;;;;5038735;28;20179;-53
2022/09/16 01:36:30;;;;;;;272.30;134.90;;;;;;;;;;5036085;28;20200;-53
2022/09/16 01:39:17;;;;;;;256.27;127.50;;;;;;;;;;5038693;28;20184;-53
2022/09/16 01:41:55;;;;;;;253.27;126.97;;;;;;;;;;5019700;28;20200;-53
2022/09/16 01:44:29;;;;;;;256.43;127.23;;;;;;;;;;5039276;28;20269;-52
2022/09/16 01:46:58;;;;;;;228.80;119.07;;;;;;;;;;5039470;28;20169;-53
2022/09/16 01:49:30;;;;;;;247.20;124.57;;;;;;;;;;5038869;28;20251;-53
2022/09/16 01:52:00;;;;;;;261.83;129.73;;;;;;;;;;5038252;28;20183;-53
2022/09/16 01:54:29;;;;;;;255.43;127.27;;;;;;;;;;5038824;28;20192;-53
2022/09/16 01:57:02;;;;;;;253.30;128.10;;;;;;;;;;5039414;28;20222;-53
2022/09/16 01:59:33;;;;;;;253.40;126.90;;;;;;;;;;5057863;28;20184;-53
2022/09/16 02:02:02;;;;;;;262.67;130.60;;;;;;;;;;5050710;28;20223;-52
2022/09/16 02:04:31;;;;;;;265.50;131.43;;;;;;;;;;5038622;28;20205;-53
2022/09/16 02:06:59;;;;;;;265.67;132.90;;;;;;;;;;5020833;28;20327;-53
2022/09/16 02:09:30;;;;;;;262.23;129.83;;;;;;;;;;5038422;28;20216;-52
2022/09/16 02:11:58;;;;;;;259.63;128.27;;;;;;;;;;5038560;28;20587;-53
2022/09/16 02:14:26;;;;;;;253.43;127.83;;;;;;;;;;5037955;28;20199;-53
2022/09/16 02:16:58;;;;;;;262.43;130.67;;;;;;;;;;5038795;28;20204;-53
2022/09/16 02:19:30;;;;;;;270.57;135.67;;;;;;;;;;5038273;28;20477;-53
2022/09/16 02:21:58;;;;;;;256.20;129.10;;;;;;;;;;5037591;28;20164;-53
2022/09/16 02:24:25;;;;;;;234.57;120.20;;;;;;;;;;5036138;28;20204;-53
2022/09/16 02:26:56;;;;;;;251.57;125.57;;;;;;;;;;5037866;28;20560;-53
2022/09/16 02:29:24;;;;;;;259.53;128.80;;;;;;;;;;5037708;28;20223;-53
2022/09/16 02:31:53;;;;;;;253.47;130.37;;;;;;;;;;5039075;28;20179;-53
2022/09/16 02:34:24;;;;;;;247.03;125.47;;;;;;;;;;5037428;28;20200;-53
2022/09/16 02:36:54;;;;;;;304.37;138.93;;;;;;;;;;5037571;28;20175;-53
2022/09/16 02:39:22;;;;;;;322.33;144.43;;;;;;;;;;5038644;28;20778;-53
2022/09/16 02:41:48;;;;;;;315.27;143.43;;;;;;;;;;5037494;28;20172;-53
2022/09/16 02:44:15;;;;;;;311.77;141.10;;;;;;;;;;5037514;28;20230;-53
2022/09/16 02:46:47;;;;;;;316.77;143.83;;;;;;;;;;5038681;28;20200;-53
2022/09/16 02:49:28;;;;;;;325.50;146.87;;;;;;;;;;5037560;28;20200;-53
2022/09/16 02:52:08;;;;;;;317.63;142.60;;;;;;;;;;5038238;28;20208;-53
2022/09/16 02:54:53;;;;;;;294.23;135.87;;;;;;;;;;5037436;28;20513;-53
2022/09/16 02:57:19;;;;;;;311.43;147.97;;;;;;;;;;5038817;28;20192;-52
2022/09/16 02:59:45;;;;;;;307.17;138.50;;;;;;;;;;5038130;28;20275;-53
2022/09/16 03:02:11;;;;;;;319.70;144.47;;;;;;;;;;5037355;28;20282;-53
2022/09/16 03:04:38;;;;;;;301.90;140.17;;;;;;;;;;5037465;28;20214;-53
2022/09/16 03:07:05;;;;;;;301.23;137.03;;;;;;;;;;5036735;28;20219;-52
2022/09/16 03:09:31;;;;;;;292.10;133.83;;;;;;;;;;5037630;28;20204;-53
2022/09/16 03:12:00;;;;;;;306.40;141.23;;;;;;;;;;5018544;28;20186;-53
2022/09/16 03:14:32;;;;;;;269.53;125.67;;;;;;;;;;5036809;28;20287;-53
2022/09/16 03:17:15;;;;;;;301.23;137.17;;;;;;;;;;5036403;28;20200;-53
2022/09/16 03:19:59;;;;;;;296.93;137.50;;;;;;;;;;5037410;28;20587;-53
2022/09/16 03:22:46;;;;;;;311.87;139.33;;;;;;;;;;5022146;28;20199;-53
2022/09/16 03:25:13;;;;;;;332.50;145.47;;;;;;;;;;5034664;28;20208;-53
2022/09/16 03:27:51;;;;;;;339.23;150.80;;;;;;;;;;5036826;28;20188;-53
2022/09/16 03:30:17;;;;;;;314.23;138.40;;;;;;;;;;5036940;28;20416;-53
2022/09/16 03:32:50;;;;;;;318.07;141.60;;;;;;;;;;5037359;28;20247;-52
2022/09/16 03:35:28;;;;;;;320.37;141.63;;;;;;;;;;5036879;28;20204;-52
2022/09/16 03:37:54;;;;;;;344.73;152.93;;;;;;;;;;5031034;28;20702;-53
2022/09/16 03:40:21;;;;;;;307.53;138.87;;;;;;;;;;5017702;28;20177;-53
2022/09/16 03:42:47;;;;;;;316.93;140.30;;;;;;;;;;5030765;28;20184;-53
2022/09/16 03:45:15;;;;;;;305.83;139.90;;;;;;;;;;5035716;28;20204;-53
2022/09/16 03:47:41;;;;;;;317.67;145.33;;;;;;;;;;5037423;28;20310;-53
2022/09/16 03:50:07;;;;;;;289.57;133.17;;;;;;;;;;5036917;28;20775;-53
2022/09/16 03:52:32;;;;;;;302.83;138.97;;;;;;;;;;5031868;28;20251;-53
2022/09/16 03:54:58;;;;;;;300.23;138.13;;;;;;;;;;5022174;28;20685;-53
2022/09/16 03:57:27;;;;;;;297.07;136.00;;;;;;;;;;5003071;28;20244;-53
2022/09/16 03:59:52;;;;;;;292.23;136.20;;;;;;;;;;5018238;28;20200;-53
2022/09/16 04:02:18;;;;;;;273.33;128.20;;;;;;;;;;5036276;28;20188;-52
2022/09/16 04:04:45;;;;;;;287.50;132.90;;;;;;;;;;5037510;28;20227;-53
2022/09/16 04:07:10;;;;;;;303.77;139.30;;;;;;;;;;5037765;28;20198;-53
2022/09/16 04:09:36;;;;;;;304.53;140.83;;;;;;;;;;5037698;28;20204;-53
2022/09/16 04:12:04;;;;;;;293.53;135.77;;;;;;;;;;5037123;28;20188;-53
2022/09/16 04:14:30;;;;;;;296.53;134.97;;;;;;;;;;5036893;28;20196;-53
2022/09/16 04:16:56;;;;;;;279.33;130.40;;;;;;;;;;5036610;28;20187;-53
2022/09/16 04:19:22;;;;;;;286.07;134.97;;;;;;;;;;5037372;28;20181;-52
2022/09/16 04:21:47;;;;;;;293.73;135.67;;;;;;;;;;5038148;28;20240;-53
2022/09/16 04:24:13;;;;;;;280.00;131.40;;;;;;;;;;5040021;28;20196;-53
2022/09/16 04:26:40;;;;;;;296.60;136.40;;;;;;;;;;5022474;28;20203;-53
2022/09/16 04:29:06;;;;;;;300.17;138.07;;;;;;;;;;5039979;28;20493;-53
2022/09/16 04:31:32;;;;;;;293.53;135.80;;;;;;;;;;5034782;28;20169;-53
2022/09/16 04:33:58;;;;;;;298.47;139.07;;;;;;;;;;5031088;28;20280;-52
2022/09/16 04:36:24;;;;;;;306.53;140.77;;;;;;;;;;5034344;28;20485;-53
2022/09/16 04:38:50;;;;;;;306.40;140.53;;;;;;;;;;5039589;28;20192;-53
2022/09/16 04:41:18;;;;;;;308.67;140.80;;;;;;;;;;5040812;28;20187;-53
2022/09/16 04:43:44;;;;;;;322.67;146.77;;;;;;;;;;5023930;28;20641;-53
2022/09/16 04:46:10;;;;;;;303.07;138.07;;;;;;;;;;5038368;28;20203;-53
2022/09/16 04:48:36;;;;;;;315.53;144.27;;;;;;;;;;5033946;28;20656;-53
2022/09/16 04:51:09;;;;;;;305.80;141.83;;;;;;;;;;5038114;28;20234;-52
2022/09/16 04:53:36;;;;;;;307.33;142.47;;;;;;;;;;5039665;28;20499;-53
2022/09/16 04:56:09;;;;;;;295.73;136.77;;;;;;;;;;5020089;28;20277;-52
2022/09/16 04:58:36;;;;;;;295.17;140.17;;;;;;;;;;5037113;28;20184;-53
2022/09/16 05:01:05;;;;;;;283.63;132.83;;;;;;;;;;5038365;28;20590;-53
2022/09/16 05:03:32;;;;;;;282.70;134.23;;;;;;;;;;5037815;28;20255;-53
2022/09/16 05:06:24;;;;;;;282.85;132.55;;;;;;;;;;5039438;28;20222;-53
2022/09/16 05:08:51;;;;;;;297.80;134.97;;;;;;;;;;5034668;28;20263;-53
2022/09/16 05:11:24;;;;;;;290.87;132.27;;;;;;;;;;5038438;28;20185;-53
2022/09/16 05:13:51;;;;;;;269.77;126.47;;;;;;;;;;5037946;28;20239;-53
2022/09/16 05:16:18;;;;;;;282.60;132.40;;;;;;;;;;5039118;28;20180;-53
2022/09/16 05:18:45;;;;;;;295.07;135.73;;;;;;;;;;5038911;28;20846;-54
2022/09/16 05:21:12;;;;;;;276.10;128.03;;;;;;;;;;5038648;28;20242;-53
2022/09/16 05:23:39;;;;;;;279.27;129.90;;;;;;;;;;5039214;28;20188;-53
2022/09/16 05:26:13;;;;;;;281.37;129.70;;;;;;;;;;5035974;28;20676;-53
2022/09/16 05:28:39;;;;;;;294.13;137.03;;;;;;;;;;5038134;28;20448;-53
2022/09/16 05:31:16;;;;;;;256.17;123.50;;;;;;;;;;5032344;28;20184;-52
2022/09/16 05:33:42;;;;;;;278.50;131.00;;;;;;;;;;5032238;28;20172;-53
2022/09/16 05:36:15;;;;;;;281.70;132.33;;;;;;;;;;5034903;28;20169;-53
2022/09/16 05:38:42;;;;;;;286.27;136.93;;;;;;;;;;5033605;28;20706;-53
2022/09/16 05:41:08;;;;;;;288.93;136.60;;;;;;;;;;5034315;28;20183;-54
2022/09/16 05:43:34;;;;;;;291.80;142.10;;;;;;;;;;5029256;28;20694;-53
2022/09/16 05:46:00;;;;;;;306.77;143.43;;;;;;;;;;5029212;28;20177;-53
2022/09/16 05:48:27;;;;;;;301.60;141.23;;;;;;;;;;5031160;28;20203;-54
2022/09/16 05:50:55;;;;;;;283.90;136.97;;;;;;;;;;5031203;28;20200;-53
2022/09/16 05:53:22;;;;;;;284.80;138.43;;;;;;;;;;5031290;28;20251;-53
2022/09/16 05:55:59;;;;;;;289.07;137.17;;;;;;;;;;5030764;28;20567;-53
2022/09/16 05:58:26;;;;;;;300.73;146.50;;;;;;;;;;5030944;28;20217;-53
2022/09/16 06:00:52;;;;;;;315.70;147.73;;;;;;;;;;5030468;28;20238;-53
2022/09/16 06:03:18;;;;;;;272.33;129.43;;;;;;;;;;5030525;28;20676;-53
2022/09/16 06:05:44;;;;;;;278.97;133.17;;;;;;;;;;5030045;28;20212;-53
2022/09/16 06:08:10;;;;;;;287.03;137.67;;;;;;;;;;5032186;28;20208;-52
2022/09/16 06:10:40;;;;;;;293.70;138.97;;;;;;;;;;5035575;28;20199;-52
2022/09/16 06:13:06;;;;;;;273.90;134.03;;;;;;;;;;5036144;28;20204;-53
2022/09/16 06:15:32;;;;;;;273.97;130.27;;;;;;;;;;5033773;28;20665;-52
2022/09/16 06:17:58;;;;;;;285.47;134.23;;;;;;;;;;5035827;28;20369;-52
2022/09/16 06:20:24;;;;;;;277.33;131.43;;;;;;;;;;5032712;28;20180;-52
2022/09/16 06:22:50;;;;;;;293.77;137.20;;;;;;;;;;5034951;28;20184;-53
2022/09/16 06:25:16;;;;;;;282.53;134.63;;;;;;;;;;5032825;28;20196;-53
2022/09/16 06:27:42;;;;;;;277.53;131.37;;;;;;;;;;5032720;28;20180;-52
2022/09/16 06:30:08;;;;;;;298.70;139.00;;;;;;;;;;5031317;28;20250;-52
2022/09/16 06:32:34;;;;;;;287.30;134.30;;;;;;;;;;5031836;28;20338;-52
2022/09/16 06:35:00;;;;;;;281.73;132.13;;;;;;;;;;5035751;28;20227;-52
2022/09/16 06:37:25;;;;;;;279.20;130.90;;;;;;;;;;5035815;28;20200;-52
2022/09/16 06:39:51;;;;;;;274.67;129.27;;;;;;;;;;5033083;28;20173;-53
2022/09/16 06:42:17;;;;;;;291.40;135.30;;;;;;;;;;5035401;28;20180;-52
2022/09/16 06:44:43;;;;;;;287.27;133.57;;;;;;;;;;5035515;28;20234;-52
2022/09/16 06:47:09;;;;;;;288.57;137.53;;;;;;;;;;5035167;28;20180;-52
2022/09/16 06:49:35;;;;;;;281.87;134.03;;;;;;;;;;5034521;28;20242;-53
2022/09/16 06:52:01;;;;;;;280.23;132.43;;;;;;;;;;5034875;28;20207;-53
2022/09/16 06:54:27;;;;;;;285.63;134.30;;;;;;;;;;5032926;28;20196;-52
2022/09/16 06:56:53;;;;;;;298.80;139.40;;;;;;;;;;5031307;28;20537;-52
2022/09/16 06:59:19;;;;;;;283.30;134.80;;;;;;;;;;5034452;28;20180;-53
2022/09/16 07:01:45;;;;;;;273.73;132.67;;;;;;;;;;5034386;28;20183;-52
2022/09/16 07:04:12;;;;;;;308.35;144.75;;;;;;;;;;5032729;28;20687;-52
2022/09/16 07:06:38;;;;;;;292.57;136.63;;;;;;;;;;5034410;28;20198;-53
2022/09/16 07:09:04;;;;;;;281.07;136.80;;;;;;;;;;5034166;28;20259;-53
2022/09/16 07:11:30;;;;;;;287.00;138.20;;;;;;;;;;5034432;28;20173;-53
2022/09/16 07:13:59;;;;;;;314.93;148.50;;;;;;;;;;5033176;28;20591;-53
2022/09/16 07:16:26;;;;;;;274.57;135.13;;;;;;;;;;5032717;28;20176;-53
2022/09/16 07:18:52;;;;;;;302.67;146.53;;;;;;;;;;5033542;28;20226;-53
2022/09/16 07:21:19;;;;;;;296.20;138.53;;;;;;;;;;5034851;28;20671;-53
2022/09/16 07:23:46;;;;;;;308.70;148.73;;;;;;;;;;5034067;28;20717;-53
2022/09/16 07:26:13;;;;;;;303.03;140.17;;;;;;;;;;5031829;28;20184;-53
2022/09/16 07:28:39;;;;;;;292.77;138.53;;;;;;;;;;5032142;28;20204;-53
2022/09/16 07:31:10;;;;;;;298.03;140.97;;;;;;;;;;5032796;28;20536;-53
2022/09/16 07:33:37;;;;;;;305.00;141.80;;;;;;;;;;5035184;28;20176;-53
2022/09/16 07:36:04;;;;;;;291.00;134.80;;;;;;;;;;5032396;28;20177;-53
2022/09/16 07:38:30;;;;;;;289.97;134.50;;;;;;;;;;5032226;28;20804;-53
2022/09/16 07:41:03;;;;;;;299.07;140.97;;;;;;;;;;5033629;28;20184;-53
2022/09/16 07:43:29;;;;;;;303.03;145.03;;;;;;;;;;5034343;28;20177;-53
2022/09/16 07:45:56;;;;;;;311.87;145.57;;;;;;;;;;5033607;28;20192;-53
2022/09/16 07:48:22;;;;;;;305.63;141.77;;;;;;;;;;5034533;28;20668;-53
2022/09/16 07:50:57;;;;;;;303.87;143.13;;;;;;;;;;5034262;28;20176;-53
2022/09/16 07:53:26;;;;;;;304.63;147.10;;;;;;;;;;5035001;28;20570;-53
2022/09/16 07:55:52;;;;;;;310.07;146.60;;;;;;;;;;5033111;28;20200;-53
2022/09/16 07:58:18;;;;;;;317.47;145.83;;;;;;;;;;5036926;28;20183;-53
2022/09/16 08:00:44;;;;;;;322.20;148.93;;;;;;;;;;5036619;28;20258;-53
2022/09/16 08:03:10;;;;;;;306.87;142.00;;;;;;;;;;5037010;28;20184;-53
2022/09/16 08:05:36;;;;;;;279.00;131.70;;;;;;;;;;5037534;28;20220;-53
2022/09/16 08:08:02;;;;;;;311.57;146.83;;;;;;;;;;5038462;28;20180;-53
2022/09/16 08:10:28;;;;;;;316.87;151.60;;;;;;;;;;5036048;28;20186;-53
2022/09/16 08:12:54;;;;;;;304.83;143.70;;;;;;;;;;5036464;28;20197;-53
2022/09/16 08:15:20;;;;;;;311.77;146.57;;;;;;;;;;5037470;28;20273;-53
2022/09/16 08:17:46;;;;;;;287.53;134.53;;;;;;;;;;5036675;28;20336;-53
2022/09/16 08:20:12;;;;;;;310.20;143.97;;;;;;;;;;5035650;28;20203;-53
2022/09/16 08:22:37;;;;;;;308.23;145.63;;;;;;;;;;5037940;28;20184;-53
2022/09/16 08:25:04;;;;;;;311.27;143.43;;;;;;;;;;5036996;28;20196;-53
2022/09/16 08:27:29;;;;;;;316.37;147.00;;;;;;;;;;5037266;28;20233;-53
2022/09/16 08:29:55;;;;;;;301.20;139.07;;;;;;;;;;5036021;28;20278;-53
2022/09/16 08:32:21;;;;;;;311.17;144.83;;;;;;;;;;5036251;28;20542;-53
2022/09/16 08:34:48;;;;;;;298.70;139.80;;;;;;;;;;5036393;28;20196;-53
2022/09/16 08:37:13;;;;;;;315.97;148.37;;;;;;;;;;5038646;28;20173;-53
2022/09/16 08:39:39;;;;;;;305.17;141.27;;;;;;;;;;5036296;28;20239;-53
2022/09/16 08:42:15;;;;;;;304.53;142.03;;;;;;;;;;5036031;28;20267;-53
2022/09/16 08:44:49;;;;;;;306.90;150.10;;;;;;;;;;5036165;28;20211;-53
2022/09/16 08:47:15;;;;;;;298.63;145.77;;;;;;;;;;5038486;28;20576;-53
2022/09/16 08:49:43;;;;;;;311.67;151.90;;;;;;;;;;5038682;28;20250;-53
2022/09/16 08:52:30;;;;;;;313.53;150.00;;;;;;;;;;5037783;28;20580;-53
2022/09/16 08:54:58;;;;;;;312.43;143.20;;;;;;;;;;5037540;28;20211;-53
2022/09/16 08:57:26;;;;;;;297.13;141.03;;;;;;;;;;5036254;28;20537;-53
2022/09/16 09:00:03;;;;;;;302.97;141.67;;;;;;;;;;5036861;28;20230;-53
2022/09/16 09:02:33;;;;;;;309.43;142.87;;;;;;;;;;5037781;28;20326;-53
2022/09/16 09:04:59;;;;;;;317.70;147.37;;;;;;;;;;5037371;28;20222;-53
2022/09/16 09:07:31;;;;;;;313.47;145.77;;;;;;;;;;5036081;28;20168;-53
2022/09/16 09:10:02;;;;;;;297.17;138.17;;;;;;;;;;5033769;28;20204;-53
2022/09/16 09:12:45;;;;;;;314.10;146.57;;;;;;;;;;5035520;28;20602;-53
2022/09/16 09:15:29;;;;;;;315.57;143.97;;;;;;;;;;5032748;28;20613;-53
2022/09/16 09:18:05;;;;;;;318.37;146.83;;;;;;;;;;5033939;28;20172;-53
2022/09/16 09:20:37;;;;;;;315.47;145.97;;;;;;;;;;5033906;28;20584;-53
2022/09/16 09:23:09;;;;;;;318.87;148.87;;;;;;;;;;5034783;28;20185;-53
2022/09/16 09:26:01;;;;;;;335.93;156.47;;;;;;;;;;5034822;28;20196;-53
2022/09/16 09:28:45;;;;;;;319.07;149.60;;;;;;;;;;5016677;28;20297;-53
2022/09/16 09:31:27;;;;;;;316.33;153.80;;;;;;;;;;5034825;28;20605;-53
2022/09/16 09:34:03;;;;;;;323.43;148.93;;;;;;;;;;5032702;28;20254;-53
2022/09/16 09:36:54;;;;;;;311.03;143.27;;;;;;;;;;5035678;28;20640;-53
2022/09/16 09:39:28;;;;;;;323.40;151.70;;;;;;;;;;5034440;28;20506;-53
2022/09/16 09:41:58;;;;;;;329.90;153.60;;;;;;;;;;5033661;28;20165;-53
2022/09/16 09:44:38;;;;;;;327.33;155.70;;;;;;;;;;5034550;28;20687;-53
2022/09/16 09:47:10;;;;;;;325.93;159.93;;;;;;;;;;5035426;28;20160;-53
2022/09/16 09:49:45;;;;;;;323.43;152.77;;;;;;;;;;5035298;28;20205;-53
2022/09/16 09:52:17;;;;;;;317.70;148.90;;;;;;;;;;5034176;28;20164;-54
2022/09/16 09:54:47;;;;;;;333.33;155.93;;;;;;;;;;5032718;28;20250;-52
2022/09/16 09:57:18;;;;;;;339.50;157.23;;;;;;;;;;5035169;28;20177;-52
2022/09/16 10:00:09;;;;;;;337.63;157.20;;;;;;;;;;5033854;28;20536;-52
2022/09/16 10:02:37;;;;;;;328.17;152.87;;;;;;;;;;5031775;28;20199;-52
2022/09/16 10:05:03;;;;;;;328.10;157.57;;;;;;;;;;5032972;28;20611;-54
2022/09/16 10:07:29;;;;;;;330.43;157.07;;;;;;;;;;5032066;28;20183;-54
2022/09/16 10:09:57;;;;;;;324.00;151.60;;;;;;;;;;5030884;28;20196;-54
2022/09/16 10:12:27;;;;;;;321.40;148.80;;;;;;;;;;5031087;28;20512;-54
2022/09/16 10:14:53;;;;;;;325.10;154.17;;;;;;;;;;5030743;28;20557;-54
2022/09/16 10:17:19;;;;;;;337.63;157.83;;;;;;;;;;5012836;28;20176;-54
2022/09/16 10:19:51;;;;;;;322.43;150.70;;;;;;;;;;5030596;28;20522;-54
2022/09/16 10:22:23;;;;;;;312.60;147.77;;;;;;;;;;5030818;28;20192;-54
2022/09/16 10:25:00;;;;;;;343.10;167.50;;;;;;;;;;5030078;28;20246;-54
2022/09/16 10:27:27;;;;;;;347.00;166.33;;;;;;;;;;5026321;28;20183;-54
2022/09/16 10:30:11;;;;;;;326.07;153.87;;;;;;;;;;5030995;28;20208;-55
2022/09/16 10:32:44;;;;;;;321.37;153.50;;;;;;;;;;5021556;28;20557;-54
2022/09/16 10:35:14;;;;;;;337.13;160.40;;;;;;;;;;5023821;28;20234;-54
2022/09/16 10:37:46;;;;;;;346.30;173.00;;;;;;;;;;5025915;28;20175;-54
2022/09/16 10:40:16;;;;;;;350.20;169.40;;;;;;;;;;5026074;28;20181;-54
2022/09/16 10:42:45;;;;;;;345.87;171.77;;;;;;;;;;5029940;28;20227;-54
2022/09/16 10:45:38;;;;;;;336.97;164.40;;;;;;;;;;5029950;28;20554;-54
2022/09/16 10:48:07;;;;;;;341.50;164.80;;;;;;;;;;5026621;28;20215;-54
2022/09/16 10:50:33;;;;;;;335.13;159.63;;;;;;;;;;5030072;28;20645;-54
2022/09/16 10:52:59;;;;;;;333.37;159.73;;;;;;;;;;5030372;28;20237;-52
2022/09/16 10:55:26;;;;;;;345.07;163.60;;;;;;;;;;5012042;28;20553;-52
2022/09/16 10:57:53;;;;;;;347.63;164.10;;;;;;;;;;5030184;28;20299;-52
2022/09/16 11:00:27;;;;;;;349.30;166.40;;;;;;;;;;5029805;28;20195;-52
2022/09/16 11:03:03;;;;;;;332.03;158.83;;;;;;;;;;5030025;28;20180;-54
2022/09/16 11:05:29;;;;;;;336.47;158.53;;;;;;;;;;5029676;28;20235;-54
2022/09/16 11:08:13;;;;;;;346.90;164.73;;;;;;;;;;5029800;28;20176;-54
2022/09/16 11:10:45;;;;;;;342.20;159.90;;;;;;;;;;5029774;28;20192;-54
2022/09/16 11:13:20;;;;;;;337.00;159.13;;;;;;;;;;5029837;28;20180;-54
2022/09/16 11:15:49;;;;;;;331.97;163.47;;;;;;;;;;5030022;28;20204;-54
2022/09/16 11:18:30;;;;;;;340.87;167.80;;;;;;;;;;5012102;28;20203;-54
2022/09/16 11:21:11;;;;;;;339.93;167.53;;;;;;;;;;5029761;28;20187;-54
2022/09/16 11:23:44;;;;;;;350.27;171.60;;;;;;;;;;5029498;28;20172;-54
2022/09/16 11:26:16;;;;;;;334.63;162.87;;;;;;;;;;5029569;28;20203;-54
2022/09/16 11:29:02;;;;;;;317.93;156.93;;;;;;;;;;5029851;28;20727;-54
2022/09/16 11:31:31;;;;;;;348.33;168.23;;;;;;;;;;5028862;28;20195;-54
2022/09/16 11:33:57;;;;;;;334.43;163.07;;;;;;;;;;5029170;28;20287;-55
2022/09/16 11:36:26;;;;;;;352.63;171.20;;;;;;;;;;5029332;28;20231;-55
2022/09/16 11:38:55;;;;;;;337.10;162.47;;;;;;;;;;5026213;28;20191;-54
2022/09/16 11:41:29;;;;;;;356.73;174.33;;;;;;;;;;5029882;28;20195;-54
2022/09/16 11:43:58;;;;;;;342.03;166.03;;;;;;;;;;5028949;28;20200;-54
2022/09/16 11:46:42;;;;;;;352.63;184.43;;;;;;;;;;5028561;28;20545;-54
2022/09/16 11:49:24;;;;;;;337.30;177.80;;;;;;;;;;5029625;28;20254;-55
2022/09/16 11:51:56;;;;;;;346.87;182.47;;;;;;;;;;5027687;28;20188;-54
2022/09/16 11:54:28;;;;;;;352.20;182.13;;;;;;;;;;5021425;28;20200;-52
2022/09/16 11:56:58;;;;;;;346.23;179.63;;;;;;;;;;5028758;28;20188;-52
2022/09/16 11:59:35;;;;;;;356.80;186.23;;;;;;;;;;5028503;28;20541;-52
2022/09/16 12:02:15;;;;;;;372.03;189.10;;;;;;;;;;5028888;28;20180;-52
2022/09/16 12:04:44;;;;;;;359.50;181.10;;;;;;;;;;5027909;28;20207;-52
2022/09/16 12:07:16;;;;;;;347.77;185.20;;;;;;;;;;5021401;28;20224;-55
2022/09/16 12:09:57;;;;;;;352.73;181.10;;;;;;;;;;5018755;28;20208;-54
2022/09/16 12:12:25;;;;;;;347.83;173.80;;;;;;;;;;5028606;28;20633;-54
2022/09/16 12:14:58;;;;;;;346.93;169.60;;;;;;;;;;5028847;28;20696;-55
2022/09/16 12:17:27;;;;;;;355.57;178.40;;;;;;;;;;5015892;28;20184;-54
2022/09/16 12:20:11;;;;;;;353.23;175.87;;;;;;;;;;5032845;28;20219;-54
2022/09/16 12:22:42;;;;;;;347.20;168.40;;;;;;;;;;5026810;28;20220;-54
2022/09/16 12:25:14;;;;;;;343.17;164.97;;;;;;;;;;5010219;28;20292;-54
2022/09/16 12:27:40;;;;;;;345.10;168.37;;;;;;;;;;5020348;28;20185;-52
2022/09/16 12:30:13;;;;;;;350.17;171.03;;;;;;;;;;5031891;28;20227;-53
2022/09/16 12:32:47;;;;;;;351.37;181.13;;;;;;;;;;5036177;28;20237;-53
2022/09/16 12:35:15;;;;;;;348.73;169.87;;;;;;;;;;5035220;28;20206;-53
2022/09/16 12:37:48;;;;;;;346.43;170.07;;;;;;;;;;5043948;28;20245;-53
2022/09/16 12:40:23;;;;;;;330.10;166.10;;;;;;;;;;5037992;28;20588;-53
2022/09/16 12:43:01;;;;;;;339.60;170.73;;;;;;;;;;5023471;28;20188;-53
2022/09/16 12:45:53;;;;;;;356.20;181.23;;;;;;;;;;5030939;28;20199;-53
2022/09/16 12:48:22;;;;;;;366.70;179.70;;;;;;;;;;5041389;28;20211;-53
2022/09/16 12:50:52;;;;;;;338.67;173.60;;;;;;;;;;5033263;28;20227;-53
2022/09/16 12:53:30;;;;;;;359.07;180.00;;;;;;;;;;5022780;28;20227;-53
2022/09/16 12:56:13;;;;;;;369.80;193.57;;;;;;;;;;5031128;28;20519;-53
2022/09/16 12:58:58;;;;;;;362.17;185.83;;;;;;;;;;5010958;28;20252;-53
2022/09/16 13:01:25;;;;;;;363.93;190.43;;;;;;;;;;5028148;28;20661;-53
2022/09/16 13:03:53;;;;;;;366.50;194.80;;;;;;;;;;5028705;28;20199;-53
2022/09/16 13:06:24;;;;;;;364.47;188.97;;;;;;;;;;5009858;28;20299;-53
2022/09/16 13:08:50;;;;;;;349.20;174.70;;;;;;;;;;5031652;28;20250;-53
2022/09/16 13:11:20;;;;;;;369.03;193.00;;;;;;;;;;5035497;28;20295;-53
2022/09/16 13:13:47;;;;;;;368.90;197.27;;;;;;;;;;5031700;28;20192;-53
2022/09/16 13:16:13;;;;;;;352.13;177.03;;;;;;;;;;5022813;28;20262;-53
2022/09/16 13:18:42;;;;;;;344.13;171.50;;;;;;;;;;5029945;28;20200;-53
2022/09/16 13:21:26;;;;;;;353.10;180.77;;;;;;;;;;5030734;28;20258;-53
2022/09/16 13:24:21;;;;;;;346.37;175.37;;;;;;;;;;5026744;28;20636;-53
2022/09/16 13:26:47;;;;;;;348.33;179.87;;;;;;;;;;4992689;28;20192;-53
2022/09/16 13:29:32;;;;;;;371.43;192.73;;;;;;;;;;5028775;28;20299;-53
2022/09/16 13:31:58;;;;;;;349.80;191.53;;;;;;;;;;5027175;28;20184;-54
2022/09/16 13:34:25;;;;;;;350.43;190.90;;;;;;;;;;5028535;28;20228;-53
2022/09/16 13:36:51;;;;;;;357.70;195.53;;;;;;;;;;5028815;28;20231;-53
2022/09/16 13:39:28;;;;;;;353.87;194.77;;;;;;;;;;5028545;28;20172;-53
2022/09/16 13:41:54;;;;;;;356.20;194.27;;;;;;;;;;5029363;28;20666;-53
2022/09/16 13:44:38;;;;;;;340.07;187.63;;;;;;;;;;5028263;28;20200;-53
2022/09/16 13:47:13;;;;;;;350.20;184.43;;;;;;;;;;5030572;28;20323;-53
2022/09/16 13:49:50;;;;;;;369.43;192.33;;;;;;;;;;5027944;28;20706;-53
2022/09/16 13:52:19;;;;;;;391.90;206.63;;;;;;;;;;5019887;28;20176;-52
2022/09/16 13:54:50;;;;;;;460.77;247.13;;;;;;;;;;4996847;28;20232;-52
2022/09/16 13:57:34;;;;;;;391.17;208.27;;;;;;;;;;5012596;28;20369;-52
2022/09/16 14:00:11;;;;;;;393.00;215.40;;;;;;;;;;5012733;28;20185;-51
2022/09/16 14:02:53;;;;;;;427.50;239.07;;;;;;;;;;5012210;28;20200;-51
2022/09/16 14:05:27;;;;;;;461.23;256.37;;;;;;;;;;5011121;28;20432;-51
2022/09/16 14:07:56;;;;;;;428.47;242.10;;;;;;;;;;5007044;28;20176;-51
2022/09/16 14:10:32;;;;;;;446.90;262.13;;;;;;;;;;5008314;28;20282;-51